Time;durP1;ratioP1;P1;durP2;ratioP2;P2;SDS_P1;SDS_P2;PMS_P1;PMS_P2;Temp;Humidity;BMP_temperature;BMP_pressure;BME280_temperature;BME280_humidity;BME280_pressure;Samples;Min_cycle;Max_cycle;Signal;HPM_P1;HPM_P2
2022/02/28 00:00:52;;;;;;;4.82;2.40;;;;;;;10.19;32.28;102676.72;5041319;28;20573;-79
2022/02/28 00:03:20;;;;;;;5.40;2.70;;;;;;;10.16;32.60;102685.81;5024896;28;20047;-79
2022/02/28 00:05:47;;;;;;;4.88;2.53;;;;;;;10.15;32.51;102681.31;5038954;28;20497;-79
2022/02/28 00:08:14;;;;;;;4.03;2.33;;;;;;;10.14;32.25;102687.69;5038256;28;20072;-79
2022/02/28 00:10:41;;;;;;;4.25;2.60;;;;;;;10.14;32.44;102690.41;5033711;28;20615;-79
2022/02/28 00:13:10;;;;;;;4.60;2.72;;;;;;;10.16;32.26;102687.63;5010880;28;20061;-79
2022/02/28 00:15:37;;;;;;;5.22;3.20;;;;;;;10.12;32.43;102686.88;5037840;28;20077;-79
2022/02/28 00:18:04;;;;;;;4.38;2.53;;;;;;;10.11;32.54;102690.53;5002449;28;20111;-79
2022/02/28 00:20:30;;;;;;;5.13;2.90;;;;;;;10.11;32.70;102697.78;5022497;28;20077;-80
2022/02/28 00:22:57;;;;;;;5.20;2.78;;;;;;;10.11;32.82;102695.06;5049134;28;20084;-79
2022/02/28 00:25:24;;;;;;;5.25;3.05;;;;;;;10.10;32.27;102688.75;5022748;28;20427;-79
2022/02/28 00:27:51;;;;;;;4.53;2.45;;;;;;;10.10;32.53;102687.84;5050389;28;20409;-79
2022/02/28 00:30:17;;;;;;;4.47;2.60;;;;;;;10.09;32.50;102686.97;5043882;28;20123;-79
2022/02/28 00:32:44;;;;;;;4.70;2.80;;;;;;;10.09;32.58;102694.22;5050690;28;20132;-80
2022/02/28 00:35:11;;;;;;;5.22;2.55;;;;;;;10.09;32.56;102692.41;5001164;28;20583;-79
2022/02/28 00:37:38;;;;;;;5.38;2.70;;;;;;;10.11;32.58;102689.63;5030031;28;20056;-79
2022/02/28 00:40:07;;;;;;;4.35;2.58;;;;;;;10.10;32.46;102694.19;5031916;28;20139;-79
2022/02/28 00:42:37;;;;;;;5.45;2.70;;;;;;;10.10;32.61;102702.31;5050181;28;20460;-79
2022/02/28 00:45:04;;;;;;;3.75;2.40;;;;;;;10.09;32.77;102700.53;5029787;28;20065;-79
2022/02/28 00:47:31;;;;;;;5.50;3.00;;;;;;;10.10;32.35;102704.16;5050841;28;20089;-79
2022/02/28 00:49:57;;;;;;;4.88;2.70;;;;;;;10.10;32.77;102698.72;5017459;28;20193;-79
2022/02/28 00:52:24;;;;;;;5.03;2.55;;;;;;;10.10;32.81;102705.03;5033383;28;20049;-79
2022/02/28 00:54:53;;;;;;;5.18;2.85;;;;;;;10.10;32.53;102715.88;5048004;28;20497;-79
2022/02/28 00:57:19;;;;;;;3.75;2.30;;;;;;;10.11;32.53;102711.34;5023688;28;20473;-79
2022/02/28 00:59:46;;;;;;;5.93;2.92;;;;;;;10.11;32.53;102706.81;5045442;28;20131;-80
2022/02/28 01:02:13;;;;;;;4.40;2.88;;;;;;;10.10;32.88;102702.31;5043372;28;20037;-79
2022/02/28 01:04:43;;;;;;;4.85;2.65;;;;;;;10.10;32.60;102702.31;5044731;28;20123;-79
2022/02/28 01:07:10;;;;;;;4.78;2.95;;;;;;;10.12;32.70;102710.41;5031984;28;20049;-79
2022/02/28 01:09:36;;;;;;;4.55;2.65;;;;;;;10.12;32.68;102707.69;5039766;28;20061;-79
2022/02/28 01:12:06;;;;;;;5.05;2.78;;;;;;;10.12;32.69;102713.13;5031723;28;20072;-79
2022/02/28 01:14:34;;;;;;;5.07;3.28;;;;;;;10.12;32.62;102705.88;5008766;28;20038;-79
2022/02/28 01:17:01;;;;;;;5.50;2.72;;;;;;;10.11;32.64;102701.38;5048709;28;20071;-79
2022/02/28 01:19:27;;;;;;;4.00;2.45;;;;;;;10.11;32.79;102693.25;5041132;28;20061;-79
2022/02/28 01:21:54;;;;;;;4.75;2.92;;;;;;;10.11;32.70;102692.34;5056454;28;20049;-79
2022/02/28 01:24:21;;;;;;;6.63;3.20;;;;;;;10.10;32.69;102696.88;5030793;28;20057;-79
2022/02/28 01:26:49;;;;;;;4.88;2.85;;;;;;;10.09;32.68;102700.53;5048277;28;20044;-79
2022/02/28 01:29:16;;;;;;;5.07;2.83;;;;;;;10.07;32.81;102699.69;5044835;28;20055;-79
2022/02/28 01:31:42;;;;;;;5.13;3.00;;;;;;;10.08;32.81;102709.63;5043899;28;20455;-79
2022/02/28 01:34:10;;;;;;;5.00;2.70;;;;;;;10.09;32.51;102714.13;5040761;28;20052;-79
2022/02/28 01:36:36;;;;;;;6.00;3.03;;;;;;;10.06;32.45;102711.50;5047570;28;20107;-79
2022/02/28 01:39:03;;;;;;;5.93;3.40;;;;;;;10.07;32.58;102710.56;5051350;28;20144;-79
2022/02/28 01:41:30;;;;;;;5.25;3.22;;;;;;;10.05;32.77;102714.25;5048839;28;20452;-79
2022/02/28 01:43:57;;;;;;;7.32;3.53;;;;;;;10.04;32.72;102715.22;5041799;28;20053;-79
2022/02/28 01:46:24;;;;;;;5.82;3.10;;;;;;;10.03;32.28;102710.72;5035526;28;20407;-79
2022/02/28 01:48:50;;;;;;;4.70;2.80;;;;;;;10.03;32.84;102713.44;5022144;28;20053;-79
2022/02/28 01:51:17;;;;;;;6.40;3.28;;;;;;;10.01;32.76;102709.88;5041489;28;20048;-79
2022/02/28 01:53:44;;;;;;;5.40;3.22;;;;;;;10.01;32.79;102712.59;5041113;28;20064;-79
2022/02/28 01:56:10;;;;;;;6.93;3.30;;;;;;;9.98;32.62;102710.88;5039662;28;20106;-79
2022/02/28 01:58:38;;;;;;;4.28;2.75;;;;;;;9.99;32.54;102709.06;5015980;28;20053;-79
2022/02/28 02:01:07;;;;;;;5.50;3.20;;;;;;;9.97;32.64;102711.81;5031363;28;20547;-79
2022/02/28 02:03:34;;;;;;;4.75;3.10;;;;;;;9.93;32.70;102700.19;5022469;28;20054;-79
2022/02/28 02:06:02;;;;;;;5.38;3.15;;;;;;;9.91;32.81;102698.47;5028562;28;20060;-79
2022/02/28 02:08:29;;;;;;;5.85;3.33;;;;;;;9.88;32.80;102696.75;5047356;28;20139;-79
2022/02/28 02:10:56;;;;;;;6.07;3.28;;;;;;;9.87;32.73;102696.81;5054089;28;20077;-79
2022/02/28 02:13:22;;;;;;;5.78;3.33;;;;;;;9.84;32.48;102694.19;5056950;28;20412;-79
2022/02/28 02:15:49;;;;;;;4.72;3.10;;;;;;;9.83;32.66;102700.56;5041760;28;20429;-79
2022/02/28 02:18:16;;;;;;;4.72;2.95;;;;;;;9.82;32.60;102698.78;5003543;28;20147;-79
2022/02/28 02:20:42;;;;;;;5.03;3.03;;;;;;;9.80;33.04;102693.41;5031140;28;20481;-79
2022/02/28 02:23:11;;;;;;;5.80;3.05;;;;;;;9.81;32.76;102699.72;5044042;28;20059;-79
2022/02/28 02:25:42;;;;;;;8.40;3.28;;;;;;;9.81;32.72;102697.00;5040943;28;20554;-79
2022/02/28 02:28:14;;;;;;;4.70;3.10;;;;;;;9.83;32.73;102703.28;5042210;28;20367;-79
2022/02/28 02:30:49;;;;;;;5.93;3.30;;;;;;;9.81;33.08;102692.47;5047471;28;20612;-79
2022/02/28 02:33:16;;;;;;;5.32;3.03;;;;;;;9.80;33.03;102692.53;5005175;28;20507;-79
2022/02/28 02:35:54;;;;;;;5.10;3.45;;;;;;;9.82;32.64;102696.97;5029217;28;20128;-79
2022/02/28 02:38:21;;;;;;;5.03;3.25;;;;;;;9.79;32.82;102696.19;5046125;28;20049;-79
2022/02/28 02:40:48;;;;;;;5.63;3.20;;;;;;;9.78;32.97;102695.31;5040988;28;20276;-79
2022/02/28 02:43:15;;;;;;;5.75;3.20;;;;;;;9.78;32.90;102691.72;5035531;28;20141;-79
2022/02/28 02:45:42;;;;;;;6.25;3.92;;;;;;;9.77;33.04;102684.50;5039502;28;20408;-79
2022/02/28 02:48:16;;;;;;;5.57;3.20;;;;;;;9.80;32.57;102696.13;5043315;28;20091;-80
2022/02/28 02:50:43;;;;;;;5.90;3.20;;;;;;;9.77;33.02;102689.94;5044645;28;20076;-79
2022/02/28 02:53:11;;;;;;;5.63;3.30;;;;;;;9.77;32.99;102693.53;5051746;28;20554;-79
2022/02/28 02:55:39;;;;;;;4.57;3.03;;;;;;;9.76;32.83;102688.16;5039808;28;20451;-79
2022/02/28 02:58:07;;;;;;;5.38;2.72;;;;;;;9.74;33.01;102682.78;5056929;28;20045;-80
2022/02/28 03:00:35;;;;;;;4.13;3.00;;;;;;;9.74;32.86;102682.78;5030145;28;20056;-79
2022/02/28 03:03:01;;;;;;;4.90;3.28;;;;;;;9.72;32.71;102676.50;5024060;28;20063;-79
2022/02/28 03:05:28;;;;;;;6.43;3.15;;;;;;;9.70;32.83;102681.13;5033268;28;20053;-79
2022/02/28 03:07:55;;;;;;;5.70;3.40;;;;;;;9.71;32.95;102684.72;5046219;28;20042;-79
2022/02/28 03:10:22;;;;;;;5.20;3.10;;;;;;;9.68;32.98;102693.84;5032295;28;20110;-80
2022/02/28 03:12:48;;;;;;;5.30;3.15;;;;;;;9.67;32.70;102685.75;5049899;28;20285;-79
2022/02/28 03:15:15;;;;;;;5.05;3.35;;;;;;;9.65;32.91;102682.19;5029197;28;20053;-79
2022/02/28 03:17:44;;;;;;;5.38;3.53;;;;;;;9.64;32.84;102683.13;5046858;28;20143;-80
2022/02/28 03:20:13;;;;;;;4.85;3.25;;;;;;;9.61;32.73;102684.13;5049131;28;20076;-79
2022/02/28 03:22:39;;;;;;;5.00;3.45;;;;;;;9.59;32.79;102686.00;5034226;28;20110;-78
2022/02/28 03:25:06;;;;;;;5.25;3.17;;;;;;;9.58;33.08;102688.75;5050394;28;20103;-78
2022/02/28 03:27:33;;;;;;;5.68;3.33;;;;;;;9.57;32.88;102692.41;5051304;28;20087;-78
2022/02/28 03:30:00;;;;;;;5.65;3.30;;;;;;;9.55;32.83;102695.19;5052720;28;20492;-79
2022/02/28 03:32:27;;;;;;;6.10;3.65;;;;;;;9.54;32.88;102686.19;5043794;28;20642;-79
2022/02/28 03:34:53;;;;;;;6.78;3.50;;;;;;;9.53;32.99;102686.22;5037367;28;20049;-79
2022/02/28 03:37:20;;;;;;;6.00;3.33;;;;;;;9.52;32.58;102689.88;5020340;28;20153;-79
2022/02/28 03:39:47;;;;;;;5.78;3.30;;;;;;;9.48;32.97;102683.66;5053176;28;20189;-78
2022/02/28 03:42:14;;;;;;;6.47;3.40;;;;;;;9.48;33.07;102690.88;5050646;28;20049;-79
2022/02/28 03:44:41;;;;;;;5.88;3.65;;;;;;;9.46;33.06;102684.66;5042664;28;20512;-79
2022/02/28 03:47:07;;;;;;;5.00;3.42;;;;;;;9.45;33.06;102693.72;5044682;28;20087;-79
2022/02/28 03:49:34;;;;;;;6.80;3.63;;;;;;;9.43;33.04;102691.06;5043896;28;20089;-79
2022/02/28 03:52:01;;;;;;;5.82;3.40;;;;;;;9.44;33.17;102700.06;5050276;28;20595;-78
2022/02/28 03:54:27;;;;;;;6.45;3.63;;;;;;;9.42;33.21;102704.66;5042305;28;20128;-78
2022/02/28 03:56:54;;;;;;;6.65;3.60;;;;;;;9.41;32.95;102692.03;5049804;28;20079;-78
2022/02/28 03:59:20;;;;;;;6.03;3.55;;;;;;;9.40;32.97;102701.09;5046285;28;20091;-78
2022/02/28 04:01:47;;;;;;;5.38;3.83;;;;;;;9.39;33.10;102700.22;5044186;28;20140;-79
2022/02/28 04:04:14;;;;;;;4.80;3.40;;;;;;;9.38;33.21;102703.00;5046358;28;20167;-79
2022/02/28 04:06:45;;;;;;;6.47;3.65;;;;;;;9.36;33.17;102700.31;5047094;28;20083;-79
2022/02/28 04:09:13;;;;;;;5.63;3.30;;;;;;;9.35;33.07;102694.94;5032090;28;20064;-79
2022/02/28 04:11:41;;;;;;;6.68;3.50;;;;;;;9.35;33.29;102687.72;5050979;28;20045;-78
2022/02/28 04:14:08;;;;;;;5.80;3.35;;;;;;;9.34;32.99;102687.75;5029102;28;20428;-79
2022/02/28 04:16:35;;;;;;;5.05;3.38;;;;;;;9.34;33.07;102680.50;5025126;28;20083;-79
2022/02/28 04:19:02;;;;;;;6.82;3.45;;;;;;;9.33;33.07;102681.44;5038539;28;20130;-78
2022/02/28 04:21:28;;;;;;;5.60;3.67;;;;;;;9.30;33.17;102676.16;5051243;28;20053;-79
2022/02/28 04:23:55;;;;;;;5.72;3.65;;;;;;;9.30;33.22;102689.69;5032021;28;20144;-79
2022/02/28 04:26:21;;;;;;;5.88;3.25;;;;;;;9.30;33.54;102688.81;5047302;28;20053;-79
2022/02/28 04:28:49;;;;;;;6.50;3.67;;;;;;;9.29;33.13;102685.22;5051442;28;20110;-79
2022/02/28 04:31:15;;;;;;;6.05;3.38;;;;;;;9.29;33.18;102687.91;5046014;28;20121;-79
2022/02/28 04:33:45;;;;;;;5.72;3.70;;;;;;;9.27;33.33;102689.78;5036847;28;20057;-79
2022/02/28 04:36:11;;;;;;;6.20;3.58;;;;;;;9.26;33.33;102679.88;5046009;28;20102;-80
2022/02/28 04:38:38;;;;;;;6.10;3.70;;;;;;;9.24;33.29;102684.44;5048138;28;20056;-80
2022/02/28 04:41:05;;;;;;;5.60;3.75;;;;;;;9.26;33.48;102689.81;5030337;28;20088;-79
2022/02/28 04:43:31;;;;;;;8.00;4.35;;;;;;;9.25;33.15;102677.19;5032601;28;20408;-79
2022/02/28 04:45:58;;;;;;;5.50;3.40;;;;;;;9.27;33.45;102678.06;5047423;28;20124;-80
2022/02/28 04:48:25;;;;;;;6.13;3.42;;;;;;;9.26;33.33;102681.69;5039749;28;20046;-80
2022/02/28 04:50:55;;;;;;;7.35;3.67;;;;;;;9.28;33.60;102682.53;5047149;28;20049;-79
2022/02/28 04:53:23;;;;;;;6.45;3.90;;;;;;;9.29;33.36;102676.19;5048521;28;20140;-80
2022/02/28 04:55:52;;;;;;;5.45;3.70;;;;;;;9.30;33.48;102683.38;5027465;28;20037;-79
2022/02/28 04:58:19;;;;;;;7.50;4.10;;;;;;;9.31;33.29;102677.00;5035745;28;20163;-79
2022/02/28 05:00:46;;;;;;;6.32;3.90;;;;;;;9.30;33.46;102675.25;5023068;28;20144;-79
2022/02/28 05:03:13;;;;;;;8.80;4.15;;;;;;;9.30;33.23;102684.28;5046701;28;20049;-79
2022/02/28 05:05:40;;;;;;;6.72;3.80;;;;;;;9.30;33.74;102683.38;5040816;28;20080;-80
2022/02/28 05:08:07;;;;;;;5.45;3.72;;;;;;;9.30;33.49;102675.25;5048479;28;20072;-80
2022/02/28 05:10:33;;;;;;;6.80;4.00;;;;;;;9.30;33.34;102670.72;5024402;28;20134;-79
2022/02/28 05:13:00;;;;;;;7.68;4.03;;;;;;;9.30;33.64;102675.25;5048110;28;20463;-80
2022/02/28 05:15:26;;;;;;;7.32;4.18;;;;;;;9.30;33.74;102672.53;5044738;28;20143;-80
2022/02/28 05:17:54;;;;;;;6.70;3.88;;;;;;;9.32;33.57;102676.06;5037878;28;20053;-80
2022/02/28 05:20:21;;;;;;;7.43;4.40;;;;;;;9.32;33.65;102679.66;5043064;28;20744;-80
2022/02/28 05:22:48;;;;;;;7.95;4.50;;;;;;;9.33;33.56;102672.41;5046973;28;20135;-80
2022/02/28 05:25:15;;;;;;;7.28;4.45;;;;;;;9.33;33.52;102676.03;5035789;28;20073;-80
2022/02/28 05:27:45;;;;;;;6.55;4.70;;;;;;;9.34;33.47;102668.78;5027375;28;20477;-80
2022/02/28 05:30:13;;;;;;;6.90;4.00;;;;;;;9.33;33.41;102667.88;5030098;28;20544;-79
2022/02/28 05:32:41;;;;;;;8.57;4.35;;;;;;;9.33;33.50;102670.59;5056941;28;20500;-80
2022/02/28 05:35:12;;;;;;;6.25;4.18;;;;;;;9.33;33.42;102670.59;5055594;28;20377;-80
2022/02/28 05:37:40;;;;;;;5.50;3.70;;;;;;;9.30;33.39;102669.84;5049605;28;20213;-79
2022/02/28 05:40:09;;;;;;;7.10;4.30;;;;;;;9.29;33.41;102668.94;5044343;28;20107;-78
2022/02/28 05:42:37;;;;;;;6.68;3.75;;;;;;;9.26;33.40;102666.31;5049363;28;20053;-80
2022/02/28 05:45:08;;;;;;;7.28;4.53;;;;;;;9.24;33.17;102673.59;5040445;28;20057;-79
2022/02/28 05:47:35;;;;;;;6.07;3.88;;;;;;;9.20;33.36;102681.91;5036513;28;20048;-80
2022/02/28 05:50:02;;;;;;;7.85;4.15;;;;;;;9.18;33.55;102676.53;5052458;28;20084;-79
2022/02/28 05:52:29;;;;;;;6.10;4.28;;;;;;;9.14;33.39;102678.44;5041052;28;20041;-78
2022/02/28 05:54:58;;;;;;;5.90;3.72;;;;;;;9.10;33.39;102675.88;5039870;28;20061;-79
2022/02/28 05:57:24;;;;;;;6.07;4.13;;;;;;;9.08;33.60;102685.88;5027121;28;20107;-79
2022/02/28 05:59:51;;;;;;;6.93;4.20;;;;;;;9.05;33.69;102686.88;5030866;28;20108;-80
2022/02/28 06:02:17;;;;;;;5.78;4.10;;;;;;;9.03;33.54;102686.03;5045042;28;20394;-80
2022/02/28 06:04:44;;;;;;;6.22;4.10;;;;;;;9.01;33.68;102681.59;5047043;28;20436;-80
2022/02/28 06:07:13;;;;;;;6.78;4.30;;;;;;;8.99;33.47;102686.16;5019140;28;20356;-80
2022/02/28 06:09:39;;;;;;;6.40;4.00;;;;;;;8.97;33.37;102686.22;5029685;28;20501;-80
2022/02/28 06:12:08;;;;;;;6.47;3.97;;;;;;;8.97;33.58;102690.75;5035658;28;20041;-79
2022/02/28 06:14:34;;;;;;;6.05;3.92;;;;;;;8.93;33.73;102687.25;5021033;28;20056;-80
2022/02/28 06:17:02;;;;;;;5.80;3.65;;;;;;;8.92;33.47;102688.19;5042416;28;20099;-80
2022/02/28 06:19:29;;;;;;;6.55;4.13;;;;;;;8.88;33.64;102697.34;5036617;28;20071;-80
2022/02/28 06:21:56;;;;;;;7.32;4.70;;;;;;;8.86;33.66;102695.59;5028607;28;20041;-79
2022/02/28 06:24:23;;;;;;;6.95;4.43;;;;;;;8.83;33.37;102706.53;5046559;28;20555;-80
2022/02/28 06:26:49;;;;;;;9.00;4.88;;;;;;;8.78;33.77;102707.56;5037662;28;20103;-80
2022/02/28 06:29:16;;;;;;;7.40;4.45;;;;;;;8.76;33.65;102700.41;5036596;28;20099;-80
2022/02/28 06:31:44;;;;;;;7.15;4.35;;;;;;;8.73;33.55;102701.38;5041650;28;20131;-81
2022/02/28 06:34:11;;;;;;;6.65;4.47;;;;;;;8.71;33.78;102714.09;5043254;28;20538;-80
2022/02/28 06:36:38;;;;;;;7.15;4.82;;;;;;;8.68;33.83;102710.56;5050203;28;20057;-81
2022/02/28 06:39:05;;;;;;;6.97;4.20;;;;;;;8.64;33.74;102707.09;5048718;28;20052;-80
2022/02/28 06:41:32;;;;;;;8.20;4.15;;;;;;;8.63;33.67;102708.03;5029458;28;20053;-81
2022/02/28 06:44:00;;;;;;;8.20;4.70;;;;;;;8.60;33.82;102708.09;5030068;28;20140;-81
2022/02/28 06:46:27;;;;;;;7.13;4.28;;;;;;;8.60;34.12;102704.50;5037441;28;20466;-81
2022/02/28 06:48:56;;;;;;;6.35;4.57;;;;;;;8.60;33.82;102708.09;5023154;28;20534;-81
2022/02/28 06:51:22;;;;;;;6.55;4.45;;;;;;;8.58;34.12;102706.34;5035043;28;20605;-81
2022/02/28 06:53:49;;;;;;;8.73;4.72;;;;;;;8.59;34.23;102708.13;5042038;28;20057;-81
2022/02/28 06:56:20;;;;;;;7.30;4.28;;;;;;;8.62;34.43;102713.47;5040632;28;20128;-81
2022/02/28 06:58:46;;;;;;;7.00;4.72;;;;;;;8.64;34.77;102712.50;5044213;28;20492;-81
2022/02/28 07:01:13;;;;;;;7.32;3.90;;;;;;;8.71;35.24;102714.09;5043429;28;20049;-81
2022/02/28 07:03:40;;;;;;;6.32;4.45;;;;;;;8.83;35.56;102717.34;5037919;28;20061;-79
2022/02/28 07:06:07;;;;;;;6.55;4.40;;;;;;;8.96;35.80;102716.06;5045153;28;20178;-80
2022/02/28 07:08:35;;;;;;;7.43;4.78;;;;;;;9.14;35.72;102716.38;5026468;28;20076;-82
2022/02/28 07:11:02;;;;;;;7.50;4.82;;;;;;;9.31;36.25;102713.13;5050514;28;20044;-81
2022/02/28 07:13:31;;;;;;;6.72;5.00;;;;;;;9.52;35.93;102711.56;4996419;28;20115;-81
2022/02/28 07:15:58;;;;;;;8.40;5.05;;;;;;;9.73;36.07;102721.69;5046430;28;20495;-87
2022/02/28 07:18:25;;;;;;;7.70;4.85;;;;;;;9.95;36.25;102715.53;5027323;28;20042;-86
2022/02/28 07:20:52;;;;;;;8.18;4.90;;;;;;;10.18;36.00;102712.94;5058333;28;20067;-87
2022/02/28 07:23:19;;;;;;;7.80;4.38;;;;;;;10.43;36.17;102712.94;5046246;28;20404;-87
2022/02/28 07:25:45;;;;;;;7.32;4.70;;;;;;;10.67;35.85;102712.91;5046300;28;20040;-86
2022/02/28 07:28:12;;;;;;;7.55;4.80;;;;;;;10.92;35.87;102710.16;5017361;28;20049;-87
2022/02/28 07:30:39;;;;;;;7.85;4.90;;;;;;;11.15;35.46;102708.34;5023132;28;20087;-87
2022/02/28 07:33:08;;;;;;;8.25;4.90;;;;;;;11.39;35.00;102713.69;5037960;28;20061;-87
2022/02/28 07:35:37;;;;;;;7.03;4.75;;;;;;;11.59;35.31;102715.59;5064069;28;20454;-89
2022/02/28 07:38:04;;;;;;;6.88;4.57;;;;;;;11.80;34.78;102714.72;5026784;28;20403;-88
2022/02/28 07:40:31;;;;;;;7.25;5.22;;;;;;;12.01;34.46;102718.38;5021611;28;20053;-87
2022/02/28 07:42:58;;;;;;;6.80;4.57;;;;;;;12.16;33.91;102708.66;5043860;28;20469;-88
2022/02/28 07:45:25;;;;;;;7.07;4.95;;;;;;;12.34;33.57;102718.75;5029805;28;20037;-89
2022/02/28 07:47:52;;;;;;;7.75;4.95;;;;;;;12.47;33.78;102716.31;5040329;28;20056;-87
2022/02/28 07:50:20;;;;;;;7.18;4.90;;;;;;;12.58;33.62;102714.91;5031710;28;20045;-86
2022/02/28 07:52:47;;;;;;;7.72;4.97;;;;;;;12.74;33.02;102712.34;5056020;28;20627;-85
2022/02/28 07:55:14;;;;;;;7.43;4.95;;;;;;;12.84;33.11;102713.69;5048561;28;20068;-85
2022/02/28 07:57:41;;;;;;;7.63;5.28;;;;;;;12.95;32.47;102708.59;5045457;28;20048;-81
2022/02/28 08:00:09;;;;;;;6.97;4.70;;;;;;;13.03;32.38;102716.41;5043371;28;20051;-88
2022/02/28 08:02:36;;;;;;;9.43;5.00;;;;;;;13.08;31.73;102708.94;5047569;28;20069;-86
2022/02/28 08:05:05;;;;;;;6.72;4.47;;;;;;;13.13;31.85;102712.34;5035997;28;20450;-87
2022/02/28 08:07:38;;;;;;;7.07;4.95;;;;;;;13.17;31.62;102707.63;5053683;28;20052;-88
2022/02/28 08:10:05;;;;;;;7.65;4.70;;;;;;;13.18;31.30;102714.84;5026284;28;20060;-88
2022/02/28 08:12:37;;;;;;;6.30;4.65;;;;;;;13.22;30.93;102711.91;5047127;28;20053;-89
2022/02/28 08:15:05;;;;;;;6.50;4.50;;;;;;;13.18;31.20;102712.09;5029433;28;20046;-85
2022/02/28 08:17:31;;;;;;;8.40;4.80;;;;;;;13.17;30.94;102711.25;5052626;28;20388;-86
2022/02/28 08:19:59;;;;;;;7.20;4.65;;;;;;;13.14;30.97;102725.03;5006521;28;20075;-85
2022/02/28 08:22:26;;;;;;;7.20;4.85;;;;;;;13.11;30.65;102724.22;5040827;28;20114;-86
2022/02/28 08:25:06;;;;;;;6.68;4.50;;;;;;;13.09;30.01;102723.44;5042175;28;20124;-87
2022/02/28 08:27:36;;;;;;;6.97;4.72;;;;;;;13.03;30.29;102737.34;5051281;28;20057;-86
2022/02/28 08:30:06;;;;;;;5.95;4.32;;;;;;;13.01;29.80;102723.81;5050298;28;20037;-85
2022/02/28 08:32:35;;;;;;;6.00;4.28;;;;;;;12.91;30.45;102731.53;5039834;28;20045;-86
2022/02/28 08:35:05;;;;;;;7.03;4.43;;;;;;;12.90;30.32;102734.34;5046252;28;20041;-87
2022/02/28 08:37:32;;;;;;;6.88;4.28;;;;;;;12.85;30.86;102733.63;5029823;28;20103;-84
2022/02/28 08:40:02;;;;;;;6.72;4.72;;;;;;;12.81;30.59;102743.81;5005429;28;20078;-88
2022/02/28 08:42:29;;;;;;;7.10;4.85;;;;;;;12.78;30.60;102737.59;5043872;28;20072;-85
2022/02/28 08:45:03;;;;;;;7.10;4.53;;;;;;;12.76;30.15;102745.88;5013579;28;20102;-86
2022/02/28 08:47:50;;;;;;;7.57;4.45;;;;;;;12.72;30.52;102743.34;5030100;28;20110;-86
2022/02/28 08:50:22;;;;;;;6.18;4.20;;;;;;;12.67;30.55;102735.41;5045984;28;20131;-90
2022/02/28 08:53:10;;;;;;;6.07;4.18;;;;;;;12.65;30.49;102722.78;5034659;28;20055;-89
2022/02/28 08:55:40;;;;;;;6.63;4.68;;;;;;;12.58;30.56;102727.63;5052448;28;20542;-90
2022/02/28 08:58:08;;;;;;;6.63;4.68;;;;;;;12.54;30.72;102718.69;5044100;28;20099;-89
2022/02/28 09:00:44;;;;;;;6.97;4.75;;;;;;;12.55;30.07;102723.19;5027710;28;20115;-90
2022/02/28 09:03:16;;;;;;;7.38;4.70;;;;;;;12.52;30.77;102728.78;5022745;28;20516;-90
2022/02/28 09:05:50;;;;;;;8.73;4.90;;;;;;;12.51;30.67;102727.03;5039486;28;20046;-89
2022/02/28 09:08:23;;;;;;;6.90;4.63;;;;;;;12.52;30.79;102733.34;5003560;28;20143;-90
2022/02/28 09:10:53;;;;;;;6.65;4.25;;;;;;;12.53;30.95;102733.28;5030304;28;20079;-90
2022/02/28 09:13:20;;;;;;;8.60;4.38;;;;;;;12.55;31.00;102728.66;5022824;28;20083;-89
2022/02/28 09:15:50;;;;;;;8.55;5.00;;;;;;;12.56;30.59;102727.69;5053173;28;20124;-90
2022/02/28 09:18:25;;;;;;;7.25;4.90;;;;;;;12.59;30.47;102721.25;4990636;28;20523;-89
2022/02/28 09:20:53;;;;;;;8.82;4.68;;;;;;;12.63;30.67;102724.69;5017029;28;20511;-88
2022/02/28 09:23:21;;;;;;;7.13;4.32;;;;;;;12.67;30.58;102738.13;4998853;28;20050;-89
2022/02/28 09:25:51;;;;;;;7.50;4.70;;;;;;;12.70;30.36;102728.91;5029076;28;20102;-86
2022/02/28 09:28:18;;;;;;;7.93;4.72;;;;;;;12.73;30.16;102723.31;5048663;28;20040;-86
2022/02/28 09:30:48;;;;;;;7.95;5.07;;;;;;;12.75;30.10;102725.03;5029431;28;20094;-86
2022/02/28 09:33:14;;;;;;;6.75;4.85;;;;;;;12.78;30.07;102724.88;5048002;28;20048;-86
2022/02/28 09:35:41;;;;;;;6.63;4.35;;;;;;;12.81;30.27;102726.56;5048528;28;20102;-85
2022/02/28 09:38:16;;;;;;;7.05;4.55;;;;;;;12.89;30.10;102727.09;5033166;28;20048;-84
2022/02/28 09:40:46;;;;;;;6.50;4.72;;;;;;;12.92;30.41;102718.78;5024246;28;20099;-84
2022/02/28 09:43:15;;;;;;;7.93;4.93;;;;;;;12.99;30.34;102711.19;5037830;28;20055;-84
2022/02/28 09:45:45;;;;;;;10.23;5.07;;;;;;;13.05;30.26;102724.53;5057859;28;20512;-84
2022/02/28 09:48:14;;;;;;;8.00;5.00;;;;;;;13.12;29.52;102704.19;5043679;28;20044;-83
2022/02/28 09:50:51;;;;;;;8.35;4.32;;;;;;;13.10;29.69;102706.09;5037387;28;20415;-84
2022/02/28 09:53:19;;;;;;;6.10;4.28;;;;;;;13.14;30.02;102705.03;5040165;28;20484;-84
2022/02/28 09:55:47;;;;;;;9.68;5.47;;;;;;;13.18;29.78;102713.00;5052551;28;20143;-85
2022/02/28 09:58:13;;;;;;;6.88;4.70;;;;;;;13.22;30.10;102711.91;5020208;28;20563;-84
2022/02/28 10:00:46;;;;;;;6.95;4.63;;;;;;;13.28;30.14;102719.78;5038501;28;20056;-84
2022/02/28 10:03:14;;;;;;;8.27;4.90;;;;;;;13.34;29.60;102711.28;5058374;28;20541;-84
2022/02/28 10:05:43;;;;;;;7.78;5.20;;;;;;;13.39;29.65;102719.25;5051756;28;20139;-84
2022/02/28 10:08:14;;;;;;;7.57;5.20;;;;;;;13.46;29.21;102728.03;5031020;28;20045;-84
2022/02/28 10:10:44;;;;;;;8.68;5.35;;;;;;;13.46;29.21;102719.84;5036115;28;20107;-84
2022/02/28 10:13:14;;;;;;;8.77;5.10;;;;;;;13.49;29.36;102730.63;5047870;28;20060;-85
2022/02/28 10:15:48;;;;;;;8.35;5.00;;;;;;;13.54;28.55;102714.88;5048362;28;20048;-85
2022/02/28 10:18:16;;;;;;;8.57;5.05;;;;;;;13.56;29.25;102721.16;5026061;28;20056;-85
2022/02/28 10:20:43;;;;;;;8.30;4.93;;;;;;;13.60;29.32;102722.75;5040145;28;20455;-84
2022/02/28 10:23:12;;;;;;;7.75;4.97;;;;;;;13.71;29.27;102728.59;5014145;28;20492;-84
2022/02/28 10:25:42;;;;;;;8.75;4.97;;;;;;;13.75;29.66;102719.28;5031844;28;20136;-84
2022/02/28 10:28:09;;;;;;;7.05;5.15;;;;;;;13.82;29.66;102720.75;5038525;28;20423;-84
2022/02/28 10:30:36;;;;;;;8.57;5.30;;;;;;;13.92;29.28;102735.66;5047741;28;20057;-84
2022/02/28 10:33:08;;;;;;;7.07;4.85;;;;;;;14.00;29.23;102725.25;5061249;28;20460;-84
2022/02/28 10:36:10;;;;;;;8.25;5.22;;;;;;;14.13;28.72;102730.97;5033957;28;20500;-84
2022/02/28 10:38:43;;;;;;;7.05;4.82;;;;;;;14.19;28.45;102736.09;5046075;28;20476;-84
2022/02/28 10:41:27;;;;;;;7.57;4.88;;;;;;;14.28;28.57;102726.53;5040256;28;20056;-83
2022/02/28 10:43:58;;;;;;;7.60;4.93;;;;;;;14.35;28.69;102727.97;5035664;28;20064;-84
2022/02/28 10:46:36;;;;;;;7.97;5.45;;;;;;;14.41;28.59;102727.72;5048991;28;20048;-84
2022/02/28 10:49:17;;;;;;;8.13;5.10;;;;;;;14.48;28.18;102722.81;5053258;28;20060;-84
2022/02/28 10:51:50;;;;;;;9.15;5.47;;;;;;;14.54;28.51;102719.72;5052609;28;20051;-84
2022/02/28 10:54:35;;;;;;;8.32;5.30;;;;;;;14.61;27.90;102711.13;5040989;28;20068;-85
2022/02/28 10:57:09;;;;;;;8.35;5.40;;;;;;;14.67;27.71;102718.09;5048379;28;20056;-83
2022/02/28 10:59:43;;;;;;;7.28;4.65;;;;;;;14.70;28.26;102713.34;5043823;28;20115;-84
2022/02/28 11:02:34;;;;;;;7.00;4.68;;;;;;;14.75;27.90;102724.91;5049970;28;20049;-83
2022/02/28 11:05:13;;;;;;;8.52;5.72;;;;;;;14.80;26.81;102705.53;5017422;28;20182;-83
2022/02/28 11:07:45;;;;;;;7.65;5.05;;;;;;;14.84;28.06;102696.16;5051481;28;20122;-83
2022/02/28 11:10:13;;;;;;;7.45;4.82;;;;;;;14.89;27.78;102702.28;5034193;28;20049;-82
2022/02/28 11:12:40;;;;;;;7.53;5.03;;;;;;;14.93;27.59;102703.88;5060613;28;20048;-83
2022/02/28 11:15:19;;;;;;;7.70;5.30;;;;;;;14.95;27.70;102701.94;5052098;28;20061;-83
2022/02/28 11:17:47;;;;;;;8.82;5.75;;;;;;;14.95;27.52;102685.53;5054806;28;20048;-83
2022/02/28 11:20:17;;;;;;;7.43;5.18;;;;;;;14.97;27.55;102680.88;5053790;28;20480;-83
2022/02/28 11:22:47;;;;;;;7.05;5.15;;;;;;;14.99;27.69;102692.56;5050959;28;20492;-83
2022/02/28 11:25:16;;;;;;;7.85;5.57;;;;;;;14.98;27.15;102682.63;5061850;28;20199;-83
2022/02/28 11:27:48;;;;;;;7.10;4.78;;;;;;;14.97;27.29;102672.66;5035667;28;20078;-83
2022/02/28 11:30:25;;;;;;;7.50;4.82;;;;;;;15.01;26.49;102676.09;5050902;28;20063;-83
2022/02/28 11:33:00;;;;;;;8.80;6.03;;;;;;;14.99;26.68;102673.44;5052698;28;20484;-83
2022/02/28 11:35:39;;;;;;;7.40;5.35;;;;;;;15.01;26.38;102663.28;5049923;28;20072;-85